Abel Figueiredo, Brazil
Current Conditions -  °F | °C
As of 8:00 PM on Sunday 21 Dec 2014 (Local Time) from SBMA Reporting Station
Clear Clear  
Wind Chill: 79°   Ceiling: Unl
Heat Index: 82°   Visibility: 6mi
Dew Point: 75°   Wind: 1mph
Humidity: 89%   Direction: 340°NNW
Pressure: 29.83"   Gusts: NA
Location:  4.95°S, 48.39°W
Report Text: SBMA 212300Z 34001KT CAVOK 26/24 Q1010
Loading
Personal Weather Stations






























Interactive Weather Map New forecast layout! Learn more

10-Day Weather Forecast

Advertisements
Track Severe Weather on mobile